createdAt,value
2019-03-12T00:02:22.501Z,27.80
2019-03-12T00:04:53.285Z,27.80
2019-03-12T00:07:24.226Z,27.80
2019-03-12T00:09:55.222Z,27.80
2019-03-12T00:12:26.049Z,27.80
2019-03-12T00:14:56.964Z,27.80
2019-03-12T00:17:27.730Z,27.80
2019-03-12T00:19:58.430Z,27.80
2019-03-12T00:22:29.316Z,27.80
2019-03-12T00:25:00.348Z,27.80
2019-03-12T00:27:31.563Z,27.80
2019-03-12T00:30:02.327Z,27.80
2019-03-12T00:32:33.058Z,27.80
2019-03-12T00:35:03.968Z,27.90
2019-03-12T00:37:34.747Z,27.90
2019-03-12T00:40:06.733Z,27.90
2019-03-12T00:42:37.710Z,27.90
2019-03-12T00:45:12.932Z,27.90
2019-03-12T00:47:43.964Z,27.90
2019-03-12T00:50:14.868Z,27.90
2019-03-12T00:52:45.598Z,27.80
2019-03-12T00:55:16.873Z,27.80
2019-03-12T00:57:47.593Z,27.80
2019-03-12T01:00:19.641Z,27.90
2019-03-12T01:02:50.804Z,27.90
2019-03-12T01:05:21.552Z,27.90
2019-03-12T01:07:52.233Z,27.90
2019-03-12T01:10:23.172Z,27.90
2019-03-12T01:12:53.939Z,27.90
2019-03-12T01:15:24.674Z,28.00
2019-03-12T01:17:55.580Z,28.00
2019-03-12T01:20:26.353Z,28.00
2019-03-12T01:22:57.088Z,28.00
2019-03-12T01:25:27.985Z,28.00
2019-03-12T01:27:58.876Z,28.00
2019-03-12T01:30:29.609Z,28.10
2019-03-12T01:33:00.500Z,28.10
2019-03-12T01:35:31.174Z,28.10
2019-03-12T01:38:01.880Z,28.10
2019-03-12T01:40:34.713Z,28.20
2019-03-12T01:43:05.435Z,28.20
2019-03-12T01:45:36.124Z,28.30
2019-03-12T01:48:07.065Z,28.30
2019-03-12T01:50:37.841Z,28.30
2019-03-12T01:53:08.533Z,28.40
2019-03-12T01:55:39.445Z,28.40
2019-03-12T01:58:10.637Z,28.40
2019-03-12T02:00:41.404Z,28.40
2019-03-12T02:03:12.268Z,28.50
2019-03-12T02:05:42.928Z,28.50
2019-03-12T02:08:33.936Z,28.60
2019-03-12T02:11:07.955Z,28.70
2019-03-12T02:13:39.045Z,28.70
2019-03-12T02:16:09.882Z,28.80
2019-03-12T02:18:40.618Z,28.80
2019-03-12T02:21:11.521Z,28.90
2019-03-12T02:24:51.998Z,29.00
2019-03-12T02:27:13.809Z,29.10
2019-03-12T02:29:44.579Z,29.20
2019-03-12T02:32:15.222Z,29.30
2019-03-12T02:34:46.215Z,29.40
2019-03-12T02:37:17.011Z,29.50
2019-03-12T02:39:47.782Z,29.60
2019-03-12T02:42:20.174Z,29.70
2019-03-12T02:44:50.936Z,29.70
2019-03-12T02:47:21.684Z,29.70
2019-03-12T02:49:52.578Z,29.80
2019-03-12T02:52:23.680Z,29.80
2019-03-12T02:54:54.611Z,29.90
2019-03-12T02:57:25.508Z,30.00
2019-03-12T02:59:56.693Z,30.10
2019-03-12T03:02:27.420Z,30.10
2019-03-12T03:04:58.332Z,30.20
2019-03-12T03:07:46.925Z,30.30
2019-03-12T03:10:17.927Z,30.40
2019-03-12T03:12:48.711Z,30.50
2019-03-12T03:15:33.363Z,30.50
2019-03-12T03:18:04.106Z,30.60
2019-03-12T03:20:34.938Z,30.70
2019-03-12T03:23:05.840Z,30.90
2019-03-12T03:25:36.629Z,31.00
2019-03-12T03:28:07.298Z,31.30
2019-03-12T03:30:38.253Z,31.50
2019-03-12T03:33:09.221Z,31.60
2019-03-12T03:35:39.952Z,31.80
2019-03-12T03:38:10.865Z,31.90
2019-03-12T03:40:41.722Z,32.00
2019-03-12T03:43:14.006Z,32.10
2019-03-12T03:45:44.912Z,32.30
2019-03-12T03:48:15.697Z,32.40
2019-03-12T03:50:46.417Z,32.40
2019-03-12T03:53:17.572Z,32.40
2019-03-12T03:55:48.615Z,32.50
2019-03-12T03:58:19.542Z,32.60
2019-03-12T04:00:51.011Z,32.80
2019-03-12T04:03:21.839Z,32.90
2019-03-12T04:05:52.580Z,33.00
2019-03-12T04:08:23.677Z,33.20
2019-03-12T04:10:54.474Z,33.40
2019-03-12T04:13:25.196Z,33.60
2019-03-12T04:15:56.094Z,33.60
2019-03-12T04:18:28.058Z,33.70
2019-03-12T04:20:58.793Z,33.70
2019-03-12T04:23:29.851Z,33.80
2019-03-12T04:26:00.575Z,33.80
2019-03-12T04:28:31.351Z,33.90
2019-03-12T04:31:02.504Z,34.20
2019-03-12T04:34:16.641Z,34.40
2019-03-12T04:36:47.631Z,34.60
2019-03-12T04:39:18.512Z,34.80
2019-03-12T04:41:49.368Z,34.80
2019-03-12T04:44:20.804Z,34.80
2019-03-12T04:46:51.654Z,34.80
2019-03-12T04:49:22.392Z,34.80
2019-03-12T04:51:53.312Z,34.90
2019-03-12T04:54:25.248Z,35.00
2019-03-12T04:56:56.026Z,35.10
2019-03-12T04:59:27.079Z,35.20
2019-03-12T05:01:58.123Z,35.30
2019-03-12T05:04:38.547Z,35.30
2019-03-12T05:07:09.226Z,35.20
2019-03-12T05:09:40.001Z,35.10
2019-03-12T05:12:11.098Z,35.00
2019-03-12T05:14:41.924Z,35.00
2019-03-12T05:17:12.566Z,34.80
2019-03-12T05:19:43.387Z,34.70
2019-03-12T05:22:14.096Z,34.60
2019-03-12T05:24:44.872Z,34.60
2019-03-12T05:27:15.870Z,34.60
2019-03-12T05:29:46.640Z,34.50
2019-03-12T05:32:17.594Z,34.30
2019-03-12T05:34:49.737Z,34.30
2019-03-12T05:37:20.440Z,34.20
2019-03-12T05:39:51.182Z,34.10
2019-03-12T05:42:22.217Z,34.10
2019-03-12T05:45:02.130Z,34.10
2019-03-12T05:47:33.359Z,34.10
2019-03-12T05:50:04.145Z,34.20
2019-03-12T05:52:35.020Z,34.20
2019-03-12T05:55:06.683Z,34.20
2019-03-12T05:57:37.444Z,34.20
2019-03-12T06:00:13.768Z,34.20
2019-03-12T06:02:44.514Z,34.20
2019-03-12T06:05:18.926Z,34.20
2019-03-12T06:07:49.709Z,34.30
2019-03-12T06:10:20.426Z,34.30
2019-03-12T06:12:51.340Z,34.30
2019-03-12T06:15:40.818Z,34.30
2019-03-12T06:18:11.712Z,34.30
2019-03-12T06:20:42.347Z,34.30
2019-03-12T06:23:15.258Z,34.20
2019-03-12T06:25:45.438Z,34.20
2019-03-12T06:28:16.177Z,34.20
2019-03-12T06:30:48.271Z,34.30
2019-03-12T06:33:29.500Z,34.20
2019-03-12T06:36:07.831Z,34.30
2019-03-12T06:38:43.238Z,34.40
2019-03-12T06:41:15.284Z,34.50
2019-03-12T06:44:04.307Z,34.60
2019-03-12T06:46:36.505Z,34.60
2019-03-12T06:49:09.157Z,34.50
2019-03-12T06:51:41.262Z,34.60
2019-03-12T06:54:22.830Z,34.50
2019-03-12T06:57:03.937Z,34.60
2019-03-12T06:59:54.702Z,34.50
2019-03-12T07:02:46.992Z,34.50
2019-03-12T07:05:19.330Z,34.50
2019-03-12T07:07:52.099Z,34.60
2019-03-12T07:10:27.544Z,34.60
2019-03-12T07:13:01.657Z,34.70
2019-03-12T07:15:34.137Z,34.70
2019-03-12T07:18:15.726Z,34.70
2019-03-12T07:21:00.594Z,34.60
2019-03-12T07:23:32.788Z,34.60
2019-03-12T07:26:11.484Z,34.60
2019-03-12T07:29:00.547Z,34.60
2019-03-12T07:31:48.193Z,34.70
2019-03-12T07:34:36.224Z,34.80
2019-03-12T07:37:04.600Z,34.70
2019-03-12T07:39:39.595Z,34.60
2019-03-12T07:42:18.361Z,34.60
2019-03-12T07:44:53.601Z,34.60
2019-03-12T07:47:35.274Z,34.70
2019-03-12T07:49:59.885Z,34.60
2019-03-12T07:52:35.349Z,34.60
2019-03-12T07:55:06.353Z,34.70
2019-03-12T07:57:44.617Z,34.70
2019-03-12T08:00:20.031Z,34.70
2019-03-12T08:03:07.969Z,34.80
2019-03-12T08:05:49.611Z,34.80
2019-03-12T08:08:28.645Z,35.00
2019-03-12T08:11:13.252Z,35.00
2019-03-12T08:14:02.118Z,35.00
2019-03-12T08:19:52.367Z,35.10
2019-03-12T08:22:24.699Z,35.10
2019-03-12T08:24:57.016Z,35.10
2019-03-12T08:27:41.244Z,35.10
2019-03-12T08:30:17.389Z,35.20
2019-03-12T08:32:55.850Z,35.30
2019-03-12T08:35:34.422Z,35.40
2019-03-12T08:38:09.767Z,35.50
2019-03-12T08:40:52.474Z,35.40
2019-03-12T08:43:17.688Z,35.40
2019-03-12T08:45:52.948Z,35.40
2019-03-12T08:48:41.385Z,35.60
2019-03-12T08:51:14.166Z,35.50
2019-03-12T08:54:17.054Z,35.40
2019-03-12T08:57:01.009Z,35.50
2019-03-12T08:59:49.450Z,35.40
2019-03-12T09:02:24.895Z,35.40
2019-03-12T09:05:14.513Z,35.40
2019-03-12T09:07:46.813Z,35.40
2019-03-12T09:10:28.242Z,35.40
2019-03-12T09:13:03.677Z,35.40
2019-03-12T09:15:51.142Z,35.50
2019-03-12T09:18:35.766Z,35.50
2019-03-12T09:21:14.080Z,35.50
2019-03-12T09:23:49.424Z,35.50
2019-03-12T09:26:21.798Z,35.40
2019-03-12T09:29:10.862Z,35.40
2019-03-12T09:31:55.421Z,35.30
2019-03-12T09:34:27.860Z,35.30
2019-03-12T09:37:09.010Z,35.20
2019-03-12T09:39:44.230Z,35.10
2019-03-12T09:42:31.748Z,35.10
2019-03-12T09:45:07.186Z,35.00
2019-03-12T09:47:44.049Z,35.00
2019-03-12T09:50:16.343Z,34.90
2019-03-12T09:52:52.162Z,34.80
2019-03-12T09:55:24.634Z,34.80
2019-03-12T09:58:09.149Z,34.80
2019-03-12T10:00:57.890Z,34.70
2019-03-12T10:03:42.457Z,34.60
2019-03-12T10:06:30.288Z,34.50
2019-03-12T10:09:05.554Z,34.50
2019-03-12T10:11:44.561Z,34.50
2019-03-12T10:14:33.318Z,34.40
2019-03-12T10:17:17.683Z,34.30
2019-03-12T10:19:58.953Z,34.30
2019-03-12T10:22:40.763Z,34.20
2019-03-12T10:25:28.892Z,34.20
2019-03-12T10:28:17.349Z,34.10
2019-03-12T10:30:59.137Z,34.10
2019-03-12T10:33:37.658Z,34.10
2019-03-12T10:36:12.659Z,34.00
2019-03-12T10:39:20.805Z,33.90
2019-03-12T10:41:55.859Z,33.90
2019-03-12T10:44:33.950Z,33.90
2019-03-12T10:47:12.261Z,33.70
2019-03-12T10:49:43.216Z,33.70
2019-03-12T10:52:14.144Z,33.60
2019-03-12T10:54:56.871Z,33.50
2019-03-12T10:57:27.551Z,33.50
2019-03-12T10:59:58.285Z,33.40
2019-03-12T11:02:29.193Z,33.40
2019-03-12T11:05:00.432Z,33.30
2019-03-12T11:07:31.451Z,33.30
2019-03-12T11:10:02.360Z,33.20
2019-03-12T11:13:07.453Z,33.10
2019-03-12T11:15:38.344Z,33.00
2019-03-12T11:18:09.029Z,33.10
2019-03-12T11:20:39.746Z,33.00
2019-03-12T11:23:10.648Z,33.00
2019-03-12T11:25:41.369Z,32.90
2019-03-12T11:28:12.109Z,32.80
2019-03-12T11:30:43.213Z,32.70
2019-03-12T11:33:13.935Z,32.60
2019-03-12T11:35:44.668Z,32.60
2019-03-12T11:38:15.633Z,32.50
2019-03-12T11:40:46.457Z,32.40
2019-03-12T11:43:17.254Z,32.40
2019-03-12T11:45:48.538Z,32.30
2019-03-12T11:48:19.481Z,32.30
2019-03-12T11:50:50.307Z,32.20
2019-03-12T11:53:21.305Z,32.10
2019-03-12T11:55:52.463Z,32.00
2019-03-12T11:58:23.338Z,31.90
2019-03-12T12:00:55.493Z,31.90
2019-03-12T12:03:26.201Z,31.90
2019-03-12T12:05:56.968Z,31.80
2019-03-12T12:08:27.906Z,31.80
2019-03-12T12:10:58.643Z,31.70
2019-03-12T12:13:29.249Z,31.70
2019-03-12T12:16:00.479Z,31.70
2019-03-12T12:18:31.373Z,31.60
2019-03-12T12:21:02.272Z,31.60
2019-03-12T12:23:33.365Z,31.60
2019-03-12T12:26:04.036Z,31.60
2019-03-12T12:28:34.877Z,31.50
2019-03-12T12:31:05.837Z,31.50
2019-03-12T12:33:36.800Z,31.50
2019-03-12T12:36:07.532Z,31.40
2019-03-12T12:38:38.440Z,31.40
2019-03-12T12:41:09.173Z,31.30
2019-03-12T12:43:59.362Z,31.20
2019-03-12T12:46:30.142Z,31.20
2019-03-12T12:49:01.090Z,31.20
2019-03-12T12:51:32.234Z,31.30
2019-03-12T12:54:02.978Z,31.20
2019-03-12T12:56:33.846Z,31.20
2019-03-12T12:59:05.117Z,31.20
2019-03-12T13:01:35.890Z,31.10
2019-03-12T13:04:06.738Z,31.10
2019-03-12T13:06:37.641Z,31.20
2019-03-12T13:09:08.600Z,31.10
2019-03-12T13:11:39.343Z,31.00
2019-03-12T13:14:10.120Z,30.90
2019-03-12T13:16:54.043Z,30.80
2019-03-12T13:19:30.414Z,30.80
2019-03-12T13:22:01.406Z,30.80
2019-03-12T13:24:32.370Z,30.70
2019-03-12T13:27:03.385Z,30.80
2019-03-12T13:29:34.216Z,30.70
2019-03-12T13:32:13.540Z,30.80
2019-03-12T13:38:28.971Z,30.70
2019-03-12T13:41:02.874Z,30.70
2019-03-12T13:43:32.284Z,30.60
2019-03-12T13:46:04.684Z,30.50
2019-03-12T13:48:35.539Z,30.50
2019-03-12T13:51:06.554Z,30.50
2019-03-12T13:53:37.713Z,30.50
2019-03-12T13:56:08.669Z,30.50
2019-03-12T13:58:39.513Z,30.40
2019-03-12T14:01:10.891Z,30.40
2019-03-12T14:03:41.701Z,30.40
2019-03-12T14:06:12.425Z,30.40
2019-03-12T14:08:43.343Z,30.40
2019-03-12T14:11:14.097Z,30.40
2019-03-12T14:13:46.417Z,30.40
2019-03-12T14:16:17.444Z,30.30
2019-03-12T14:18:48.774Z,30.30
2019-03-12T14:21:19.613Z,30.30
2019-03-12T14:23:53.178Z,30.30
2019-03-12T14:26:26.723Z,30.40
2019-03-12T14:28:57.791Z,30.30
2019-03-12T14:31:28.707Z,30.20
2019-03-12T14:33:59.749Z,30.30
2019-03-12T14:36:30.703Z,30.30
2019-03-12T14:39:01.645Z,30.30
2019-03-12T14:41:32.346Z,30.20
2019-03-12T14:44:04.962Z,30.20
2019-03-12T14:46:35.781Z,30.10
2019-03-12T14:49:14.768Z,30.10
2019-03-12T14:51:52.149Z,30.10
2019-03-12T14:54:36.424Z,30.10
2019-03-12T14:57:07.137Z,30.20
2019-03-12T14:59:37.903Z,30.20
2019-03-12T15:02:09.087Z,30.20
2019-03-12T15:05:15.944Z,30.20
2019-03-12T15:07:47.449Z,30.10
2019-03-12T15:10:19.907Z,30.10
2019-03-12T15:12:50.716Z,30.10
2019-03-12T15:15:30.913Z,30.10
2019-03-12T15:18:01.720Z,30.10
2019-03-12T15:20:32.954Z,30.00
2019-03-12T15:23:05.081Z,29.90
2019-03-12T15:25:44.060Z,29.80
2019-03-12T15:28:15.016Z,29.80
2019-03-12T15:30:45.793Z,29.90
2019-03-12T15:33:16.521Z,29.90
2019-03-12T15:35:47.706Z,29.80
2019-03-12T15:38:19.917Z,29.80
2019-03-12T15:40:50.917Z,29.80
2019-03-12T15:43:23.088Z,29.80
2019-03-12T15:45:54.112Z,29.80
2019-03-12T15:48:26.055Z,29.70
2019-03-12T15:50:58.441Z,29.70
2019-03-12T15:53:29.414Z,29.60
2019-03-12T15:56:00.454Z,29.60
2019-03-12T15:58:31.455Z,29.60
2019-03-12T16:01:02.886Z,29.70
2019-03-12T16:03:34.361Z,29.70
2019-03-12T16:06:06.327Z,29.80
2019-03-12T16:08:53.143Z,29.70
2019-03-12T16:11:23.873Z,29.70
2019-03-12T16:13:54.614Z,29.60
2019-03-12T16:16:25.505Z,29.60
2019-03-12T16:18:56.281Z,29.60
2019-03-12T16:21:29.708Z,29.60
2019-03-12T16:24:00.970Z,29.60
2019-03-12T16:26:33.240Z,29.60
2019-03-12T16:29:04.243Z,29.60
2019-03-12T16:31:35.007Z,29.60
2019-03-12T16:34:05.752Z,29.60
2019-03-12T16:36:36.609Z,29.60
2019-03-12T16:39:07.996Z,29.60
2019-03-12T16:41:39.002Z,29.50
2019-03-12T16:44:09.985Z,29.50
2019-03-12T16:46:40.763Z,29.50
2019-03-12T16:49:11.501Z,29.50
2019-03-12T16:51:42.421Z,29.50
2019-03-12T16:54:13.162Z,29.40
2019-03-12T16:56:45.445Z,29.40
2019-03-12T16:59:16.397Z,29.40
2019-03-12T17:01:47.075Z,29.40
2019-03-12T17:04:18.224Z,29.40
2019-03-12T17:06:49.113Z,29.40
2019-03-12T17:09:19.830Z,29.40
2019-03-12T17:11:50.578Z,29.40
2019-03-12T17:14:21.466Z,29.40
2019-03-12T17:16:52.253Z,29.30
2019-03-12T17:19:22.980Z,29.30
2019-03-12T17:21:53.894Z,29.30
2019-03-12T17:24:25.037Z,29.40
2019-03-12T17:26:55.761Z,29.40
2019-03-12T17:29:26.669Z,29.40
2019-03-12T17:31:57.375Z,29.40
2019-03-12T17:34:35.731Z,29.30
2019-03-12T17:37:00.547Z,29.30
2019-03-12T17:39:31.220Z,29.30
2019-03-12T17:42:02.364Z,29.40
2019-03-12T17:44:33.268Z,29.30
2019-03-12T17:47:04.044Z,29.30
2019-03-12T17:49:34.633Z,29.20
2019-03-12T17:52:05.680Z,29.20
2019-03-12T17:54:54.993Z,29.20
2019-03-12T17:57:25.896Z,29.30
2019-03-12T17:59:56.880Z,29.20
2019-03-12T18:02:27.715Z,29.30
2019-03-12T18:04:59.021Z,29.20
2019-03-12T18:07:29.806Z,29.20
2019-03-12T18:10:00.529Z,29.20
2019-03-12T18:12:31.441Z,29.10
2019-03-12T18:15:02.167Z,29.10
2019-03-12T18:17:33.009Z,29.10
2019-03-12T18:20:03.955Z,29.10
2019-03-12T18:22:34.932Z,29.10
2019-03-12T18:25:34.098Z,29.10
2019-03-12T18:28:04.875Z,29.10
2019-03-12T18:30:35.604Z,29.10
2019-03-12T18:33:06.783Z,29.10
2019-03-12T18:35:41.859Z,29.00
2019-03-12T18:38:12.789Z,29.00
2019-03-12T18:40:43.414Z,29.00
2019-03-12T18:43:14.935Z,29.00
2019-03-12T18:45:46.114Z,29.00
2019-03-12T18:48:16.889Z,28.90
2019-03-12T18:50:47.625Z,28.90
2019-03-12T18:53:18.532Z,28.90
2019-03-12T18:55:51.568Z,28.90
2019-03-12T18:58:22.571Z,28.90
2019-03-12T19:00:53.344Z,29.00
2019-03-12T19:03:24.072Z,29.00
2019-03-12T19:05:55.278Z,28.90
2019-03-12T19:08:25.973Z,29.00
2019-03-12T19:10:56.597Z,28.90
2019-03-12T19:13:27.501Z,28.90
2019-03-12T19:15:58.234Z,28.90
2019-03-12T19:18:29.004Z,28.90
2019-03-12T19:21:00.009Z,28.80
2019-03-12T19:23:30.781Z,28.80
2019-03-12T19:26:01.508Z,28.80
2019-03-12T19:28:32.712Z,28.90
2019-03-12T19:31:14.668Z,28.90
2019-03-12T19:33:45.759Z,28.80
2019-03-12T19:36:16.532Z,28.80
2019-03-12T19:38:47.281Z,28.80
2019-03-12T19:41:18.388Z,28.80
2019-03-12T19:43:49.148Z,28.80
2019-03-12T19:46:19.789Z,28.80
2019-03-12T19:48:50.654Z,28.70
2019-03-12T19:51:21.588Z,28.70
2019-03-12T19:53:52.312Z,28.80
2019-03-12T19:56:23.301Z,28.80
2019-03-12T19:58:54.142Z,28.80
2019-03-12T20:01:25.476Z,28.80
2019-03-12T20:03:56.437Z,28.70
2019-03-12T20:06:27.499Z,28.80
2019-03-12T20:08:58.660Z,28.80
2019-03-12T20:11:40.924Z,28.70
2019-03-12T20:14:19.701Z,28.70
2019-03-12T20:17:17.573Z,28.70
2019-03-12T20:22:47.068Z,28.70
2019-03-12T20:25:52.174Z,28.60
2019-03-12T20:28:44.414Z,28.60
2019-03-12T20:31:43.486Z,28.60
2019-03-12T20:34:31.899Z,28.60
2019-03-12T20:37:38.720Z,28.60
2019-03-12T20:40:34.873Z,28.50
2019-03-12T20:43:32.003Z,28.50
2019-03-12T20:46:22.461Z,28.50
2019-03-12T20:49:28.938Z,28.50
2019-03-12T20:52:21.895Z,28.50
2019-03-12T20:55:23.739Z,28.50
2019-03-12T20:58:13.648Z,28.50
2019-03-12T21:01:05.512Z,28.50
2019-03-12T21:04:03.030Z,28.40
2019-03-12T21:06:51.111Z,28.40
2019-03-12T21:09:58.237Z,28.40
2019-03-12T21:12:49.799Z,28.40
2019-03-12T21:15:38.038Z,28.40
2019-03-12T21:18:43.325Z,28.40
2019-03-12T21:21:28.558Z,28.40
2019-03-12T21:24:04.766Z,28.40
2019-03-12T21:29:45.443Z,28.40
2019-03-12T21:32:17.329Z,28.30
2019-03-12T21:34:48.057Z,28.30
2019-03-12T21:37:18.699Z,28.30
2019-03-12T21:39:55.642Z,28.30
2019-03-12T21:42:24.982Z,28.30
2019-03-12T21:45:17.630Z,28.30
2019-03-12T21:47:48.350Z,28.30
2019-03-12T21:50:18.985Z,28.30
2019-03-12T21:52:49.889Z,28.20
2019-03-12T21:55:37.745Z,28.30
2019-03-12T21:58:08.256Z,28.20
2019-03-12T22:00:39.024Z,28.20
2019-03-12T22:03:09.762Z,28.20
2019-03-12T22:05:40.914Z,28.20
2019-03-12T22:08:11.737Z,28.20
2019-03-12T22:10:42.786Z,28.20
2019-03-12T22:13:13.695Z,28.10
2019-03-12T22:15:44.679Z,28.20
2019-03-12T22:18:15.514Z,28.20
2019-03-12T22:20:46.418Z,28.10
2019-03-12T22:23:21.541Z,28.10
2019-03-12T22:25:55.747Z,28.10
2019-03-12T22:28:24.669Z,28.10
2019-03-12T22:30:55.908Z,28.10
2019-03-12T22:33:26.851Z,28.10
2019-03-12T22:35:57.614Z,28.10
2019-03-12T22:38:28.352Z,28.00
2019-03-12T22:40:59.260Z,28.00
2019-03-12T22:43:30.037Z,28.00
2019-03-12T22:46:00.556Z,28.00
2019-03-12T22:48:31.464Z,28.00
2019-03-12T22:51:02.293Z,28.00
2019-03-12T22:53:33.072Z,28.00
2019-03-12T22:56:03.873Z,28.00
2019-03-12T22:58:34.644Z,28.00
2019-03-12T23:01:05.376Z,28.00
2019-03-12T23:04:19.650Z,28.00
2019-03-12T23:06:50.444Z,28.00
2019-03-12T23:09:21.174Z,28.00
2019-03-12T23:11:52.625Z,27.90
2019-03-12T23:14:23.410Z,27.90
2019-03-12T23:16:54.209Z,27.90
2019-03-12T23:19:25.393Z,27.90
2019-03-12T23:21:56.233Z,27.90
2019-03-12T23:24:26.920Z,27.90
2019-03-12T23:26:58.112Z,27.90
2019-03-12T23:29:28.932Z,27.90
2019-03-12T23:32:00.192Z,27.90
2019-03-12T23:34:31.104Z,27.80
2019-03-12T23:37:01.860Z,27.80
2019-03-12T23:39:32.596Z,27.80
2019-03-12T23:42:03.503Z,27.80
2019-03-12T23:44:34.268Z,27.80
2019-03-12T23:47:05.024Z,27.80
2019-03-12T23:49:36.268Z,27.80
2019-03-12T23:52:09.752Z,27.80
2019-03-12T23:54:40.665Z,27.80
2019-03-12T23:57:11.439Z,27.80
2019-03-12T23:59:42.171Z,27.80
